createdAt,value
2022-09-07T00:01:01.796Z,17.92
2022-09-07T00:03:29.766Z,17.91
2022-09-07T00:05:59.186Z,17.90
2022-09-07T00:08:28.069Z,17.77
2022-09-07T00:10:57.749Z,17.82
2022-09-07T00:13:27.948Z,17.88
2022-09-07T00:15:56.534Z,17.90
2022-09-07T00:18:24.778Z,17.86
2022-09-07T00:21:00.936Z,17.90
2022-09-07T00:23:30.045Z,17.88
2022-09-07T00:26:01.673Z,17.89
2022-09-07T00:28:29.961Z,17.94
2022-09-07T00:30:58.085Z,17.94
2022-09-07T00:33:26.691Z,17.87
2022-09-07T00:35:54.912Z,17.86
2022-09-07T00:38:24.296Z,17.93
2022-09-07T00:40:52.265Z,18.00
2022-09-07T00:43:32.553Z,17.94
2022-09-07T00:46:00.695Z,18.00
2022-09-07T00:48:34.685Z,17.97
2022-09-07T00:51:06.379Z,17.97
2022-09-07T00:53:41.117Z,18.04
2022-09-07T00:56:10.756Z,18.04
2022-09-07T00:58:42.186Z,18.02
2022-09-07T01:01:10.274Z,18.08
2022-09-07T01:03:41.955Z,18.08
2022-09-07T01:06:16.679Z,18.08
2022-09-07T01:08:49.748Z,18.07
2022-09-07T01:11:19.533Z,18.01
2022-09-07T01:13:49.872Z,18.08
2022-09-07T01:16:28.859Z,18.11
2022-09-07T01:19:11.006Z,18.12
2022-09-07T01:21:58.224Z,18.26
2022-09-07T01:24:42.771Z,18.39
2022-09-07T01:27:50.369Z,18.47
2022-09-07T01:30:20.618Z,18.46
2022-09-07T01:33:06.496Z,18.51
2022-09-07T01:35:44.873Z,18.40
2022-09-07T01:38:21.394Z,18.39
2022-09-07T01:40:58.159Z,18.37
2022-09-07T01:43:36.442Z,18.30
2022-09-07T01:46:08.798Z,18.27
2022-09-07T01:48:40.648Z,18.22
2022-09-07T01:51:13.497Z,18.19
2022-09-07T01:53:44.748Z,18.23
2022-09-07T01:56:16.589Z,18.14
2022-09-07T01:58:49.043Z,18.17
2022-09-07T02:01:26.382Z,18.09
2022-09-07T02:04:00.270Z,18.14
2022-09-07T02:06:35.898Z,18.14
2022-09-07T02:09:07.972Z,18.08
2022-09-07T02:11:38.613Z,18.04
2022-09-07T02:14:12.666Z,18.13
2022-09-07T02:16:46.113Z,18.12
2022-09-07T02:19:18.982Z,18.40
2022-09-07T02:21:51.247Z,18.38
2022-09-07T02:24:24.602Z,18.32
2022-09-07T02:26:54.449Z,18.37
2022-09-07T02:29:25.226Z,18.20
2022-09-07T02:31:54.956Z,18.30
2022-09-07T02:34:22.899Z,18.34
2022-09-07T02:36:52.429Z,18.35
2022-09-07T02:39:20.328Z,18.46
2022-09-07T02:41:48.368Z,18.64
2022-09-07T02:44:20.548Z,18.69
2022-09-07T02:47:04.274Z,18.64
2022-09-07T02:49:47.014Z,18.54
2022-09-07T02:52:26.662Z,18.50
2022-09-07T02:55:06.511Z,18.42
2022-09-07T02:57:45.475Z,18.43
2022-09-07T03:00:17.970Z,18.42
2022-09-07T03:02:55.332Z,18.42
2022-09-07T03:05:29.127Z,18.31
2022-09-07T03:08:02.258Z,18.26
2022-09-07T03:10:31.101Z,18.05
2022-09-07T03:12:58.963Z,18.04
2022-09-07T03:15:29.028Z,18.06
2022-09-07T03:17:58.557Z,18.06
2022-09-07T03:20:26.523Z,17.99
2022-09-07T03:22:54.419Z,18.01
2022-09-07T03:25:22.857Z,17.89
2022-09-07T03:27:50.795Z,17.89
2022-09-07T03:30:18.796Z,17.81
2022-09-07T03:32:47.491Z,17.73
2022-09-07T03:35:17.189Z,17.57
2022-09-07T03:37:45.492Z,17.42
2022-09-07T03:40:15.988Z,17.49
2022-09-07T03:42:44.277Z,17.54
2022-09-07T03:45:12.454Z,17.45
2022-09-07T03:47:40.762Z,17.39
2022-09-07T03:50:09.448Z,17.33
2022-09-07T03:52:39.556Z,17.26
2022-09-07T03:55:07.963Z,17.16
2022-09-07T03:57:36.075Z,17.09
2022-09-07T04:00:05.387Z,17.11
2022-09-07T04:02:33.473Z,17.13
2022-09-07T04:05:01.417Z,17.10
2022-09-07T04:07:29.297Z,17.14
2022-09-07T04:09:58.689Z,17.18
2022-09-07T04:12:26.595Z,17.25
2022-09-07T04:14:54.478Z,17.31
2022-09-07T04:17:22.339Z,17.34
2022-09-07T04:19:50.220Z,17.38
2022-09-07T04:22:18.121Z,17.27
2022-09-07T04:24:46.021Z,17.26
2022-09-07T04:27:15.295Z,17.17
2022-09-07T04:29:43.187Z,17.17
2022-09-07T04:32:15.556Z,17.30
2022-09-07T04:34:43.794Z,17.21
2022-09-07T04:37:12.751Z,17.18
2022-09-07T04:39:40.784Z,17.15
2022-09-07T04:42:08.824Z,17.07
2022-09-07T04:44:38.117Z,17.09
2022-09-07T04:47:06.209Z,17.09
2022-09-07T04:49:34.139Z,17.00
2022-09-07T04:52:03.173Z,17.09
2022-09-07T04:54:31.102Z,17.07
2022-09-07T04:56:59.022Z,17.00
2022-09-07T04:59:27.035Z,16.97
2022-09-07T05:01:56.359Z,17.02
2022-09-07T05:04:24.301Z,17.09
2022-09-07T05:06:54.266Z,17.10
2022-09-07T05:09:22.267Z,17.12
2022-09-07T05:11:50.167Z,17.16
2022-09-07T05:14:18.100Z,17.18
2022-09-07T05:16:46.175Z,17.17
2022-09-07T05:19:16.004Z,17.14
2022-09-07T05:21:43.888Z,17.21
2022-09-07T05:24:11.905Z,17.24
2022-09-07T05:26:40.251Z,17.34
2022-09-07T05:31:57.129Z,17.45
2022-09-07T05:36:55.949Z,17.43
2022-09-07T05:39:24.027Z,17.41
2022-09-07T05:41:51.965Z,17.40
2022-09-07T05:47:08.290Z,17.52
2022-09-07T05:49:37.593Z,17.59
2022-09-07T05:52:05.717Z,17.65
2022-09-07T05:54:33.638Z,17.76
2022-09-07T05:57:03.133Z,17.89
2022-09-07T05:59:31.085Z,17.98
2022-09-07T06:01:59.630Z,18.07
2022-09-07T06:04:27.710Z,18.19
2022-09-07T06:12:33.372Z,18.45
2022-09-07T06:15:01.586Z,18.51
2022-09-07T06:17:29.908Z,18.62
2022-09-07T06:19:57.945Z,18.70
2022-09-07T06:22:30.767Z,18.76
2022-09-07T06:24:59.653Z,18.85
2022-09-07T06:27:27.803Z,18.88
2022-09-07T06:29:55.841Z,18.95
2022-09-07T06:35:12.289Z,19.02
2022-09-07T06:37:42.267Z,19.11
2022-09-07T06:40:12.043Z,19.24
2022-09-07T06:42:40.039Z,19.34
2022-09-07T06:45:10.064Z,19.37
2022-09-07T06:47:38.131Z,19.46
2022-09-07T06:50:06.556Z,19.46
2022-09-07T06:55:27.606Z,19.63
2022-09-07T06:57:55.645Z,19.78
2022-09-07T07:00:23.814Z,19.79
2022-09-07T07:02:51.946Z,19.95
2022-09-07T07:05:19.956Z,19.99
2022-09-07T07:07:48.054Z,20.14
2022-09-07T07:10:18.763Z,20.11
2022-09-07T07:12:50.235Z,20.17
2022-09-07T07:15:18.283Z,20.32
2022-09-07T07:17:51.946Z,20.25
2022-09-07T07:20:24.293Z,20.41
2022-09-07T07:22:52.763Z,20.48
2022-09-07T07:25:21.242Z,20.40
2022-09-07T07:27:50.977Z,20.57
2022-09-07T07:30:20.028Z,20.78
2022-09-07T07:32:50.162Z,20.96
2022-09-07T07:35:18.395Z,21.21
2022-09-07T07:37:48.078Z,21.48
2022-09-07T07:40:17.770Z,21.89
2022-09-07T07:42:50.172Z,21.79
2022-09-07T07:48:06.633Z,21.56
2022-09-07T07:50:34.935Z,21.64
2022-09-07T07:55:51.366Z,21.54
2022-09-07T07:58:20.860Z,21.88
2022-09-07T08:00:56.624Z,21.98
2022-09-07T08:03:26.142Z,22.43
2022-09-07T08:05:54.183Z,22.48
2022-09-07T08:08:23.076Z,22.84
2022-09-07T08:10:51.422Z,22.67
2022-09-07T08:13:21.328Z,22.97
2022-09-07T08:15:49.388Z,22.75
2022-09-07T08:18:18.521Z,22.58
2022-09-07T08:20:49.759Z,22.38
2022-09-07T08:23:20.269Z,22.55
2022-09-07T08:25:51.971Z,22.39
2022-09-07T08:28:24.801Z,22.36
2022-09-07T08:30:52.694Z,22.33
2022-09-07T08:33:21.379Z,22.56
2022-09-07T08:35:56.276Z,22.59
2022-09-07T08:38:24.568Z,22.66
2022-09-07T08:40:53.033Z,22.51
2022-09-07T08:43:45.856Z,22.51
2022-09-07T08:46:27.776Z,22.21
2022-09-07T08:48:57.210Z,22.17
2022-09-07T08:51:38.166Z,22.44
2022-09-07T08:54:06.839Z,22.09
2022-09-07T08:56:39.539Z,21.96
2022-09-07T08:59:20.161Z,22.71
2022-09-07T09:02:26.885Z,22.99
2022-09-07T09:05:16.422Z,22.72
2022-09-07T09:07:31.740Z,23.07
2022-09-07T09:10:20.747Z,23.21
2022-09-07T09:13:04.340Z,23.24
2022-09-07T09:15:45.413Z,23.12
2022-09-07T09:18:28.804Z,23.60
2022-09-07T09:20:58.136Z,23.53
2022-09-07T09:23:28.830Z,23.04
2022-09-07T09:25:59.060Z,23.53
2022-09-07T09:28:28.948Z,23.55
2022-09-07T09:31:01.218Z,23.51
2022-09-07T09:33:29.895Z,23.72
2022-09-07T09:36:00.439Z,23.67
2022-09-07T09:38:39.435Z,23.65
2022-09-07T09:41:09.694Z,23.89
2022-09-07T09:43:42.656Z,24.23
2022-09-07T09:46:26.971Z,24.06
2022-09-07T09:48:58.289Z,24.54
2022-09-07T09:54:25.636Z,24.99
2022-09-07T09:56:53.386Z,24.83
2022-09-07T10:05:31.200Z,24.43
2022-09-07T10:07:59.311Z,24.29
2022-09-07T10:10:28.772Z,24.74
2022-09-07T10:12:57.542Z,24.55
2022-09-07T10:15:39.975Z,24.75
2022-09-07T10:18:21.274Z,24.55
2022-09-07T10:20:49.747Z,24.71
2022-09-07T10:23:23.083Z,24.81
2022-09-07T10:25:51.208Z,24.92
2022-09-07T10:28:21.743Z,24.94
2022-09-07T10:31:15.151Z,24.94
2022-09-07T10:36:47.456Z,25.10
2022-09-07T10:39:19.365Z,25.39
2022-09-07T10:42:01.516Z,25.11
2022-09-07T10:44:43.690Z,25.44
2022-09-07T10:47:24.839Z,25.55
2022-09-07T10:52:57.307Z,25.97
2022-09-07T10:55:32.844Z,25.90
2022-09-07T10:58:16.985Z,26.09
2022-09-07T11:00:59.294Z,25.38
2022-09-07T11:03:54.303Z,25.56
2022-09-07T11:06:30.979Z,25.77
2022-09-07T11:09:48.152Z,26.14
2022-09-07T11:12:20.749Z,26.14
2022-09-07T11:14:58.894Z,26.35
2022-09-07T11:17:29.181Z,26.23
2022-09-07T11:20:10.239Z,26.23
2022-09-07T11:22:47.385Z,26.02
2022-09-07T11:25:36.640Z,26.11
2022-09-07T11:28:13.874Z,26.35
2022-09-07T11:30:46.917Z,26.08
2022-09-07T11:33:20.806Z,26.43
2022-09-07T11:35:54.124Z,26.53
2022-09-07T11:38:30.621Z,26.54
2022-09-07T11:41:23.234Z,26.68
2022-09-07T11:43:58.259Z,26.76
2022-09-07T11:46:33.711Z,26.92
2022-09-07T11:49:04.506Z,26.93
2022-09-07T11:51:41.608Z,26.65
2022-09-07T11:54:26.044Z,26.91
2022-09-07T11:56:59.150Z,26.87
2022-09-07T11:59:39.906Z,26.75
2022-09-07T12:02:59.451Z,26.83
2022-09-07T12:05:42.522Z,26.79
2022-09-07T12:08:26.631Z,26.88
2022-09-07T12:11:23.502Z,27.00
2022-09-07T12:14:16.386Z,26.83
2022-09-07T12:17:01.647Z,27.01
2022-09-07T12:19:30.120Z,26.89
2022-09-07T12:21:59.514Z,26.91
2022-09-07T12:24:49.927Z,27.23
2022-09-07T12:27:39.296Z,27.20
2022-09-07T12:30:52.838Z,27.25
2022-09-07T12:33:39.572Z,27.46
2022-09-07T12:36:44.074Z,27.53
2022-09-07T12:39:25.655Z,27.66
2022-09-07T12:45:35.890Z,27.90
2022-09-07T12:48:19.549Z,27.97
2022-09-07T12:50:58.831Z,28.33
2022-09-07T12:53:34.645Z,28.17
2022-09-07T12:56:21.032Z,28.35
2022-09-07T12:59:16.040Z,28.61
2022-09-07T13:01:58.019Z,28.84
2022-09-07T13:05:01.570Z,28.86
2022-09-07T13:08:06.983Z,29.04
2022-09-07T13:10:38.247Z,29.19
2022-09-07T13:13:07.932Z,29.04
2022-09-07T13:15:41.463Z,28.17
2022-09-07T13:18:15.433Z,27.44
2022-09-07T13:20:44.557Z,27.01
2022-09-07T13:23:31.163Z,27.12
2022-09-07T13:26:01.291Z,27.35
2022-09-07T13:28:41.968Z,25.76
2022-09-07T13:31:25.980Z,25.32
2022-09-07T13:33:54.638Z,24.89
2022-09-07T13:36:38.724Z,24.54
2022-09-07T13:39:10.231Z,24.34
2022-09-07T13:41:43.338Z,24.35
2022-09-07T13:44:25.229Z,24.71
2022-09-07T13:47:03.622Z,25.03
2022-09-07T13:49:44.001Z,25.48
2022-09-07T13:52:18.993Z,25.64
2022-09-07T13:54:58.564Z,26.19
2022-09-07T13:57:29.789Z,26.39
2022-09-07T13:59:58.636Z,26.64
2022-09-07T14:02:29.592Z,27.33
2022-09-07T14:05:00.368Z,27.59
2022-09-07T14:07:31.442Z,28.02
2022-09-07T14:10:08.171Z,28.01
2022-09-07T14:12:43.593Z,29.27
2022-09-07T14:15:20.278Z,31.10
2022-09-07T14:17:49.666Z,32.69
2022-09-07T14:20:19.190Z,30.88
2022-09-07T14:22:53.220Z,29.97
2022-09-07T14:25:22.721Z,29.38
2022-09-07T14:27:51.103Z,28.68
2022-09-07T14:30:25.652Z,28.62
2022-09-07T14:32:55.832Z,27.78
2022-09-07T14:35:26.266Z,27.74
2022-09-07T14:37:58.428Z,28.10
2022-09-07T14:40:27.759Z,28.27
2022-09-07T14:42:58.119Z,28.34
2022-09-07T14:45:34.168Z,29.81
2022-09-07T14:48:13.269Z,30.31
2022-09-07T14:50:41.927Z,29.96
2022-09-07T14:53:34.807Z,29.90
2022-09-07T14:56:09.071Z,29.14
2022-09-07T14:58:36.956Z,29.23
2022-09-07T15:04:19.692Z,29.60
2022-09-07T15:07:03.528Z,29.02
2022-09-07T15:09:37.532Z,29.87
2022-09-07T15:12:24.910Z,30.59
2022-09-07T15:15:11.037Z,29.43
2022-09-07T15:17:46.209Z,28.69
2022-09-07T15:20:43.389Z,28.56
2022-09-07T15:23:13.388Z,28.34
2022-09-07T15:25:48.224Z,28.84
2022-09-07T15:34:02.107Z,27.83
2022-09-07T15:36:31.961Z,27.73
2022-09-07T15:39:00.693Z,27.66
2022-09-07T15:41:30.272Z,27.80
2022-09-07T15:43:58.673Z,27.66
2022-09-07T15:46:27.380Z,27.75
2022-09-07T15:48:56.922Z,27.74
2022-09-07T15:54:14.620Z,28.07
2022-09-07T15:57:48.374Z,28.04
2022-09-07T15:59:32.610Z,28.16
2022-09-07T16:02:00.773Z,28.55
2022-09-07T16:04:28.947Z,28.60
2022-09-07T16:06:56.920Z,28.45
2022-09-07T16:09:24.950Z,28.44
2022-09-07T16:11:54.493Z,28.04
2022-09-07T16:14:22.599Z,27.79
2022-09-07T16:19:41.083Z,27.91
2022-09-07T16:22:09.624Z,27.50
2022-09-07T16:24:37.775Z,27.57
2022-09-07T16:27:07.183Z,27.55
2022-09-07T16:29:37.926Z,27.44
2022-09-07T16:34:54.893Z,27.33
2022-09-07T16:37:22.673Z,27.03
2022-09-07T16:39:51.479Z,26.94
2022-09-07T16:42:20.784Z,26.72
2022-09-07T16:44:49.339Z,26.88
2022-09-07T16:47:17.340Z,26.63
2022-09-07T16:49:45.084Z,26.27
2022-09-07T16:52:12.872Z,26.15
2022-09-07T16:54:40.648Z,26.11
2022-09-07T16:57:08.560Z,25.90
2022-09-07T16:59:37.638Z,25.74
2022-09-07T17:02:05.446Z,25.67
2022-09-07T17:04:33.245Z,25.56
2022-09-07T17:07:01.013Z,25.49
2022-09-07T17:09:28.778Z,25.34
2022-09-07T17:11:56.567Z,25.39
2022-09-07T17:14:24.355Z,25.32
2022-09-07T17:16:53.577Z,25.24
2022-09-07T17:19:30.031Z,25.28
2022-09-07T17:21:59.654Z,25.19
2022-09-07T17:24:27.535Z,25.14
2022-09-07T17:26:55.398Z,25.08
2022-09-07T17:29:23.547Z,25.04
2022-09-07T17:34:40.558Z,24.90
2022-09-07T17:37:09.258Z,24.85
2022-09-07T17:39:38.602Z,24.69
2022-09-07T17:42:06.649Z,24.73
2022-09-07T17:44:37.970Z,24.64
2022-09-07T17:47:07.724Z,24.63
2022-09-07T17:49:35.656Z,24.55
2022-09-07T17:52:03.783Z,24.44
2022-09-07T17:54:31.954Z,24.38
2022-09-07T17:56:59.813Z,24.43
2022-09-07T18:02:16.926Z,24.43
2022-09-07T18:04:44.879Z,24.41
2022-09-07T18:07:12.724Z,24.31
2022-09-07T18:09:40.437Z,24.26
2022-09-07T18:12:08.361Z,24.26
2022-09-07T18:14:36.186Z,24.19
2022-09-07T18:17:05.015Z,24.22
2022-09-07T18:19:34.393Z,24.15
2022-09-07T18:22:06.564Z,24.10
2022-09-07T18:24:37.136Z,24.12
2022-09-07T18:27:06.368Z,24.06
2022-09-07T18:29:35.170Z,23.88
2022-09-07T18:32:08.873Z,23.92
2022-09-07T18:34:41.291Z,23.83
2022-09-07T18:37:12.143Z,23.77
2022-09-07T18:39:41.128Z,23.67
2022-09-07T18:42:09.323Z,23.66
2022-09-07T18:47:28.715Z,23.61
2022-09-07T18:49:58.956Z,23.71
2022-09-07T18:55:21.339Z,23.70
2022-09-07T18:57:50.128Z,23.71
2022-09-07T19:00:20.759Z,23.77
2022-09-07T19:02:53.421Z,23.63
2022-09-07T19:08:11.274Z,23.54
2022-09-07T19:10:39.944Z,23.41
2022-09-07T19:13:07.981Z,23.42
2022-09-07T19:15:37.684Z,23.38
2022-09-07T19:18:07.899Z,23.36
2022-09-07T19:20:37.607Z,23.33
2022-09-07T19:23:06.695Z,23.16
2022-09-07T19:25:34.578Z,23.15
2022-09-07T19:28:02.744Z,23.04
2022-09-07T19:30:30.603Z,22.95
2022-09-07T19:33:03.386Z,22.98
2022-09-07T19:35:37.971Z,22.97
2022-09-07T19:38:05.924Z,22.92
2022-09-07T19:40:34.445Z,22.85
2022-09-07T19:43:03.202Z,22.84
2022-09-07T19:45:31.113Z,22.86
2022-09-07T19:47:59.243Z,22.76
2022-09-07T19:50:27.097Z,22.63
2022-09-07T19:52:56.820Z,22.39
2022-09-07T19:55:25.199Z,22.11
2022-09-07T19:57:53.175Z,21.82
2022-09-07T20:00:22.602Z,21.66
2022-09-07T20:02:51.109Z,21.34
2022-09-07T20:05:19.432Z,21.30
2022-09-07T20:07:47.258Z,21.15
2022-09-07T20:10:16.734Z,21.06
2022-09-07T20:12:44.786Z,20.87
2022-09-07T20:15:12.934Z,20.93
2022-09-07T20:17:41.173Z,20.71
2022-09-07T20:20:11.131Z,20.63
2022-09-07T20:22:41.907Z,20.47
2022-09-07T20:25:13.405Z,20.44
2022-09-07T20:27:43.999Z,20.28
2022-09-07T20:30:13.584Z,20.35
2022-09-07T20:32:41.953Z,20.35
2022-09-07T20:35:13.686Z,20.27
2022-09-07T20:37:41.506Z,20.30
2022-09-07T20:40:10.598Z,20.18
2022-09-07T20:42:39.211Z,20.05
2022-09-07T20:45:11.550Z,19.88
2022-09-07T20:47:40.875Z,19.91
2022-09-07T20:50:09.734Z,19.82
2022-09-07T20:52:40.158Z,19.72
2022-09-07T20:55:09.481Z,19.56
2022-09-07T20:57:37.964Z,19.57
2022-09-07T21:00:09.376Z,19.53
2022-09-07T21:02:39.337Z,19.43
2022-09-07T21:05:08.732Z,19.42
2022-09-07T21:07:39.097Z,19.43
2022-09-07T21:10:08.263Z,19.41
2022-09-07T21:12:37.014Z,19.43
2022-09-07T21:15:05.726Z,19.63
2022-09-07T21:17:33.730Z,19.64
2022-09-07T21:20:03.895Z,19.68
2022-09-07T21:22:32.466Z,19.61
2022-09-07T21:25:02.012Z,19.58
2022-09-07T21:27:38.103Z,19.56
2022-09-07T21:30:07.465Z,19.50
2022-09-07T21:32:35.265Z,19.44
2022-09-07T21:35:04.539Z,19.33
2022-09-07T21:37:32.492Z,19.23
2022-09-07T21:40:00.288Z,19.21
2022-09-07T21:42:28.113Z,19.15
2022-09-07T21:44:55.866Z,19.14
2022-09-07T21:47:23.556Z,19.05
2022-09-07T21:49:51.880Z,19.21
2022-09-07T21:52:20.968Z,19.22
2022-09-07T21:54:49.717Z,19.23
2022-09-07T21:57:17.434Z,19.02
2022-09-07T21:59:45.413Z,18.92
2022-09-07T22:02:13.375Z,18.88
2022-09-07T22:04:41.584Z,18.92
2022-09-07T22:07:09.366Z,18.89
2022-09-07T22:09:38.462Z,18.93
2022-09-07T22:12:06.730Z,18.87
2022-09-07T22:14:34.602Z,18.72
2022-09-07T22:17:02.422Z,18.74
2022-09-07T22:19:30.136Z,18.65
2022-09-07T22:21:58.034Z,18.50
2022-09-07T22:24:25.865Z,18.39
2022-09-07T22:26:55.055Z,18.46
2022-09-07T22:29:22.853Z,18.40
2022-09-07T22:31:50.814Z,18.31
2022-09-07T22:34:18.829Z,18.30
2022-09-07T22:36:47.182Z,18.35
2022-09-07T22:39:17.037Z,18.40
2022-09-07T22:41:46.007Z,18.34
2022-09-07T22:44:17.053Z,18.27
2022-09-07T22:46:46.995Z,18.31
2022-09-07T22:49:16.901Z,18.26
2022-09-07T22:51:45.178Z,18.22
2022-09-07T22:54:13.259Z,18.25
2022-09-07T22:56:41.345Z,18.22
2022-09-07T22:59:10.527Z,18.21
2022-09-07T23:01:40.256Z,18.31
2022-09-07T23:04:08.864Z,18.33
2022-09-07T23:06:38.529Z,18.64
2022-09-07T23:09:08.346Z,18.54
2022-09-07T23:11:36.390Z,18.55
2022-09-07T23:14:07.063Z,18.62
2022-09-07T23:16:35.119Z,18.62
2022-09-07T23:19:04.603Z,18.68
2022-09-07T23:21:32.854Z,18.56
2022-09-07T23:24:01.646Z,18.58
2022-09-07T23:26:31.509Z,18.56
2022-09-07T23:29:01.803Z,18.51
2022-09-07T23:31:31.036Z,18.50
2022-09-07T23:33:59.713Z,18.52
2022-09-07T23:36:29.662Z,18.51
2022-09-07T23:38:58.992Z,18.50
2022-09-07T23:41:27.532Z,18.52
2022-09-07T23:43:55.882Z,18.48
2022-09-07T23:46:24.483Z,18.41
2022-09-07T23:48:52.525Z,18.46
2022-09-07T23:51:24.235Z,18.46
2022-09-07T23:53:54.318Z,18.49
2022-09-07T23:56:24.599Z,18.61
2022-09-07T23:58:53.245Z,18.49
